sensor_id;sensor_type;location;lat;lon;timestamp;P1;durP1;ratioP1;P2;durP2;ratioP2
15913;SDS011;8055;51.930;8.840;2022-12-29T00:02:12;2.15;;;1.70;;
15913;SDS011;8055;51.930;8.840;2022-12-29T00:04:38;1.40;;;1.30;;
15913;SDS011;8055;51.930;8.840;2022-12-29T00:07:04;2.33;;;1.50;;
15913;SDS011;8055;51.930;8.840;2022-12-29T00:09:30;1.77;;;1.23;;
15913;SDS011;8055;51.930;8.840;2022-12-29T00:11:56;1.90;;;1.35;;
15913;SDS011;8055;51.930;8.840;2022-12-29T00:14:23;1.75;;;1.00;;
15913;SDS011;8055;51.930;8.840;2022-12-29T00:17:07;2.80;;;1.33;;
15913;SDS011;8055;51.930;8.840;2022-12-29T00:19:32;1.63;;;1.40;;
15913;SDS011;8055;51.930;8.840;2022-12-29T00:22:16;1.95;;;1.40;;
15913;SDS011;8055;51.930;8.840;2022-12-29T00:25:00;2.25;;;1.30;;
15913;SDS011;8055;51.930;8.840;2022-12-29T00:27:44;1.35;;;1.10;;
15913;SDS011;8055;51.930;8.840;2022-12-29T00:30:28;2.03;;;1.30;;
15913;SDS011;8055;51.930;8.840;2022-12-29T00:33:13;3.10;;;1.17;;
15913;SDS011;8055;51.930;8.840;2022-12-29T00:36:03;2.58;;;1.10;;
15913;SDS011;8055;51.930;8.840;2022-12-29T00:38:32;2.03;;;1.35;;
15913;SDS011;8055;51.930;8.840;2022-12-29T00:41:19;1.38;;;1.10;;
15913;SDS011;8055;51.930;8.840;2022-12-29T00:44:03;1.95;;;1.00;;
15913;SDS011;8055;51.930;8.840;2022-12-29T00:46:35;2.38;;;1.33;;
15913;SDS011;8055;51.930;8.840;2022-12-29T00:49:02;0.90;;;0.90;;
15913;SDS011;8055;51.930;8.840;2022-12-29T00:51:47;1.40;;;1.10;;
15913;SDS011;8055;51.930;8.840;2022-12-29T00:54:13;2.30;;;1.10;;
15913;SDS011;8055;51.930;8.840;2022-12-29T00:56:38;1.63;;;1.30;;
15913;SDS011;8055;51.930;8.840;2022-12-29T00:59:05;2.28;;;1.10;;
15913;SDS011;8055;51.930;8.840;2022-12-29T01:01:32;2.25;;;1.10;;
15913;SDS011;8055;51.930;8.840;2022-12-29T01:03:58;1.00;;;0.90;;
15913;SDS011;8055;51.930;8.840;2022-12-29T01:06:24;1.13;;;0.95;;
15913;SDS011;8055;51.930;8.840;2022-12-29T01:08:50;1.80;;;1.25;;
15913;SDS011;8055;51.930;8.840;2022-12-29T01:11:36;1.38;;;0.95;;
15913;SDS011;8055;51.930;8.840;2022-12-29T01:14:01;1.02;;;0.93;;
15913;SDS011;8055;51.930;8.840;2022-12-29T01:16:27;1.98;;;1.15;;
15913;SDS011;8055;51.930;8.840;2022-12-29T01:18:52;0.98;;;0.80;;
15913;SDS011;8055;51.930;8.840;2022-12-29T01:21:18;1.77;;;1.00;;
15913;SDS011;8055;51.930;8.840;2022-12-29T01:23:43;0.90;;;0.90;;
15913;SDS011;8055;51.930;8.840;2022-12-29T01:26:09;1.10;;;0.75;;
15913;SDS011;8055;51.930;8.840;2022-12-29T01:28:36;1.58;;;0.90;;
15913;SDS011;8055;51.930;8.840;2022-12-29T01:31:04;1.15;;;0.82;;
15913;SDS011;8055;51.930;8.840;2022-12-29T01:33:30;2.08;;;1.20;;
15913;SDS011;8055;51.930;8.840;2022-12-29T01:35:59;1.02;;;0.90;;
15913;SDS011;8055;51.930;8.840;2022-12-29T01:38:25;1.00;;;0.90;;
15913;SDS011;8055;51.930;8.840;2022-12-29T01:40:51;1.23;;;0.98;;
15913;SDS011;8055;51.930;8.840;2022-12-29T01:43:16;2.10;;;0.90;;
15913;SDS011;8055;51.930;8.840;2022-12-29T01:45:44;1.88;;;0.80;;
15913;SDS011;8055;51.930;8.840;2022-12-29T01:48:14;1.52;;;0.82;;
15913;SDS011;8055;51.930;8.840;2022-12-29T01:50:45;1.35;;;0.90;;
15913;SDS011;8055;51.930;8.840;2022-12-29T01:55:46;1.13;;;0.80;;
15913;SDS011;8055;51.930;8.840;2022-12-29T01:58:15;1.08;;;0.88;;
15913;SDS011;8055;51.930;8.840;2022-12-29T02:00:45;2.05;;;0.98;;
15913;SDS011;8055;51.930;8.840;2022-12-29T02:03:10;1.73;;;1.15;;
15913;SDS011;8055;51.930;8.840;2022-12-29T02:05:42;1.05;;;0.90;;
15913;SDS011;8055;51.930;8.840;2022-12-29T02:10:35;1.15;;;0.70;;
15913;SDS011;8055;51.930;8.840;2022-12-29T02:13:01;1.00;;;0.80;;
15913;SDS011;8055;51.930;8.840;2022-12-29T02:37:37;0.70;;;0.70;;
15913;SDS011;8055;51.930;8.840;2022-12-29T02:40:17;0.68;;;0.63;;
15913;SDS011;8055;51.930;8.840;2022-12-29T02:43:04;2.05;;;0.70;;
15913;SDS011;8055;51.930;8.840;2022-12-29T02:45:39;1.05;;;0.68;;
15913;SDS011;8055;51.930;8.840;2022-12-29T02:50:47;0.70;;;0.60;;
15913;SDS011;8055;51.930;8.840;2022-12-29T02:53:24;0.70;;;0.60;;
15913;SDS011;8055;51.930;8.840;2022-12-29T02:56:10;1.13;;;0.50;;
15913;SDS011;8055;51.930;8.840;2022-12-29T02:58:35;0.55;;;0.50;;
15913;SDS011;8055;51.930;8.840;2022-12-29T03:12:30;0.73;;;0.60;;
15913;SDS011;8055;51.930;8.840;2022-12-29T03:15:21;0.98;;;0.70;;
15913;SDS011;8055;51.930;8.840;2022-12-29T03:18:12;1.48;;;0.70;;
15913;SDS011;8055;51.930;8.840;2022-12-29T03:20:38;0.75;;;0.65;;
15913;SDS011;8055;51.930;8.840;2022-12-29T03:23:11;0.40;;;0.40;;
15913;SDS011;8055;51.930;8.840;2022-12-29T03:25:39;0.60;;;0.50;;
15913;SDS011;8055;51.930;8.840;2022-12-29T03:30:38;0.82;;;0.50;;
15913;SDS011;8055;51.930;8.840;2022-12-29T03:33:10;0.63;;;0.63;;
15913;SDS011;8055;51.930;8.840;2022-12-29T03:35:40;2.10;;;0.50;;
15913;SDS011;8055;51.930;8.840;2022-12-29T03:38:09;0.40;;;0.40;;
15913;SDS011;8055;51.930;8.840;2022-12-29T03:40:41;0.82;;;0.73;;
15913;SDS011;8055;51.930;8.840;2022-12-29T03:43:10;0.90;;;0.35;;
15913;SDS011;8055;51.930;8.840;2022-12-29T03:45:37;2.25;;;0.50;;
15913;SDS011;8055;51.930;8.840;2022-12-29T03:48:03;1.30;;;0.50;;
15913;SDS011;8055;51.930;8.840;2022-12-29T03:50:28;0.80;;;0.40;;
15913;SDS011;8055;51.930;8.840;2022-12-29T03:52:54;0.68;;;0.47;;
15913;SDS011;8055;51.930;8.840;2022-12-29T03:55:19;0.45;;;0.45;;
15913;SDS011;8055;51.930;8.840;2022-12-29T03:57:44;0.70;;;0.63;;
15913;SDS011;8055;51.930;8.840;2022-12-29T04:00:10;0.60;;;0.60;;
15913;SDS011;8055;51.930;8.840;2022-12-29T04:02:36;0.93;;;0.60;;
15913;SDS011;8055;51.930;8.840;2022-12-29T04:05:01;0.73;;;0.73;;
15913;SDS011;8055;51.930;8.840;2022-12-29T04:07:26;0.82;;;0.50;;
15913;SDS011;8055;51.930;8.840;2022-12-29T04:09:52;0.60;;;0.60;;
15913;SDS011;8055;51.930;8.840;2022-12-29T04:12:17;0.60;;;0.60;;
15913;SDS011;8055;51.930;8.840;2022-12-29T04:14:42;1.23;;;0.80;;
15913;SDS011;8055;51.930;8.840;2022-12-29T04:17:08;0.40;;;0.40;;
15913;SDS011;8055;51.930;8.840;2022-12-29T04:19:33;1.02;;;0.50;;
15913;SDS011;8055;51.930;8.840;2022-12-29T04:21:58;1.33;;;0.45;;
15913;SDS011;8055;51.930;8.840;2022-12-29T04:24:24;1.58;;;0.60;;
15913;SDS011;8055;51.930;8.840;2022-12-29T04:26:49;0.70;;;0.50;;
15913;SDS011;8055;51.930;8.840;2022-12-29T04:29:15;1.02;;;0.50;;
15913;SDS011;8055;51.930;8.840;2022-12-29T04:31:40;1.08;;;0.50;;
15913;SDS011;8055;51.930;8.840;2022-12-29T04:34:05;0.50;;;0.50;;
15913;SDS011;8055;51.930;8.840;2022-12-29T04:36:31;1.75;;;0.60;;
15913;SDS011;8055;51.930;8.840;2022-12-29T04:38:56;1.10;;;0.60;;
15913;SDS011;8055;51.930;8.840;2022-12-29T04:41:21;1.40;;;0.60;;
15913;SDS011;8055;51.930;8.840;2022-12-29T04:43:47;1.13;;;0.77;;
15913;SDS011;8055;51.930;8.840;2022-12-29T04:46:12;2.05;;;0.90;;
15913;SDS011;8055;51.930;8.840;2022-12-29T04:48:37;1.40;;;0.73;;
15913;SDS011;8055;51.930;8.840;2022-12-29T04:51:03;1.55;;;0.70;;
15913;SDS011;8055;51.930;8.840;2022-12-29T04:53:28;2.70;;;0.68;;
15913;SDS011;8055;51.930;8.840;2022-12-29T04:55:54;2.50;;;0.73;;
15913;SDS011;8055;51.930;8.840;2022-12-29T04:58:20;1.08;;;0.80;;
15913;SDS011;8055;51.930;8.840;2022-12-29T05:00:45;1.88;;;0.65;;
15913;SDS011;8055;51.930;8.840;2022-12-29T05:03:11;2.97;;;0.73;;
15913;SDS011;8055;51.930;8.840;2022-12-29T05:05:36;0.73;;;0.68;;
15913;SDS011;8055;51.930;8.840;2022-12-29T05:08:02;1.70;;;0.77;;
15913;SDS011;8055;51.930;8.840;2022-12-29T05:10:27;1.88;;;0.60;;
15913;SDS011;8055;51.930;8.840;2022-12-29T05:12:53;0.88;;;0.52;;
15913;SDS011;8055;51.930;8.840;2022-12-29T05:15:19;0.60;;;0.60;;
15913;SDS011;8055;51.930;8.840;2022-12-29T05:17:44;0.85;;;0.57;;
15913;SDS011;8055;51.930;8.840;2022-12-29T05:20:10;1.45;;;0.80;;
15913;SDS011;8055;51.930;8.840;2022-12-29T05:22:36;0.60;;;0.60;;
15913;SDS011;8055;51.930;8.840;2022-12-29T05:25:01;0.90;;;0.60;;
15913;SDS011;8055;51.930;8.840;2022-12-29T05:27:27;0.57;;;0.57;;
15913;SDS011;8055;51.930;8.840;2022-12-29T05:29:53;1.13;;;0.50;;
15913;SDS011;8055;51.930;8.840;2022-12-29T05:32:18;0.50;;;0.50;;
15913;SDS011;8055;51.930;8.840;2022-12-29T05:34:44;0.68;;;0.50;;
15913;SDS011;8055;51.930;8.840;2022-12-29T05:37:09;0.55;;;0.55;;
15913;SDS011;8055;51.930;8.840;2022-12-29T05:39:35;0.80;;;0.55;;
15913;SDS011;8055;51.930;8.840;2022-12-29T05:42:00;0.82;;;0.50;;
15913;SDS011;8055;51.930;8.840;2022-12-29T05:44:26;2.38;;;0.52;;
15913;SDS011;8055;51.930;8.840;2022-12-29T05:46:51;0.50;;;0.50;;
15913;SDS011;8055;51.930;8.840;2022-12-29T05:49:17;1.05;;;0.43;;
15913;SDS011;8055;51.930;8.840;2022-12-29T05:51:43;0.85;;;0.43;;
15913;SDS011;8055;51.930;8.840;2022-12-29T05:54:08;0.60;;;0.50;;
15913;SDS011;8055;51.930;8.840;2022-12-29T05:56:33;0.60;;;0.60;;
15913;SDS011;8055;51.930;8.840;2022-12-29T05:58:59;2.75;;;0.45;;
15913;SDS011;8055;51.930;8.840;2022-12-29T06:01:25;0.70;;;0.55;;
15913;SDS011;8055;51.930;8.840;2022-12-29T06:03:50;1.60;;;0.57;;
15913;SDS011;8055;51.930;8.840;2022-12-29T06:06:15;0.90;;;0.40;;
15913;SDS011;8055;51.930;8.840;2022-12-29T06:08:41;0.95;;;0.68;;
15913;SDS011;8055;51.930;8.840;2022-12-29T06:11:06;0.95;;;0.55;;
15913;SDS011;8055;51.930;8.840;2022-12-29T06:13:32;1.65;;;0.73;;
15913;SDS011;8055;51.930;8.840;2022-12-29T06:15:57;0.65;;;0.52;;
15913;SDS011;8055;51.930;8.840;2022-12-29T06:18:22;0.52;;;0.47;;
15913;SDS011;8055;51.930;8.840;2022-12-29T06:20:48;0.43;;;0.43;;
15913;SDS011;8055;51.930;8.840;2022-12-29T06:23:13;1.02;;;0.60;;
15913;SDS011;8055;51.930;8.840;2022-12-29T06:25:39;1.13;;;0.57;;
15913;SDS011;8055;51.930;8.840;2022-12-29T06:28:04;1.95;;;0.70;;
15913;SDS011;8055;51.930;8.840;2022-12-29T06:30:30;3.83;;;0.50;;
15913;SDS011;8055;51.930;8.840;2022-12-29T06:32:55;2.13;;;0.68;;
15913;SDS011;8055;51.930;8.840;2022-12-29T06:35:21;0.60;;;0.60;;
15913;SDS011;8055;51.930;8.840;2022-12-29T06:37:49;0.60;;;0.40;;
15913;SDS011;8055;51.930;8.840;2022-12-29T06:40:15;1.08;;;0.50;;
15913;SDS011;8055;51.930;8.840;2022-12-29T06:42:41;1.65;;;0.95;;
15913;SDS011;8055;51.930;8.840;2022-12-29T06:45:06;1.35;;;0.50;;
15913;SDS011;8055;51.930;8.840;2022-12-29T06:47:33;1.15;;;0.60;;
15913;SDS011;8055;51.930;8.840;2022-12-29T06:49:59;1.50;;;0.90;;
15913;SDS011;8055;51.930;8.840;2022-12-29T06:52:25;2.08;;;0.77;;
15913;SDS011;8055;51.930;8.840;2022-12-29T06:54:50;0.50;;;0.50;;
15913;SDS011;8055;51.930;8.840;2022-12-29T06:57:16;2.05;;;0.90;;
15913;SDS011;8055;51.930;8.840;2022-12-29T06:59:41;1.35;;;0.75;;
15913;SDS011;8055;51.930;8.840;2022-12-29T07:02:06;3.33;;;0.80;;
15913;SDS011;8055;51.930;8.840;2022-12-29T07:04:32;1.85;;;0.60;;
15913;SDS011;8055;51.930;8.840;2022-12-29T07:06:57;0.65;;;0.63;;
15913;SDS011;8055;51.930;8.840;2022-12-29T07:09:23;1.73;;;0.80;;
15913;SDS011;8055;51.930;8.840;2022-12-29T07:11:48;2.03;;;0.77;;
15913;SDS011;8055;51.930;8.840;2022-12-29T07:14:13;1.98;;;0.60;;
15913;SDS011;8055;51.930;8.840;2022-12-29T07:16:39;1.45;;;0.80;;
15913;SDS011;8055;51.930;8.840;2022-12-29T07:19:04;0.70;;;0.70;;
15913;SDS011;8055;51.930;8.840;2022-12-29T07:21:30;1.17;;;0.60;;
15913;SDS011;8055;51.930;8.840;2022-12-29T07:23:56;2.35;;;0.65;;
15913;SDS011;8055;51.930;8.840;2022-12-29T07:26:21;2.60;;;0.77;;
15913;SDS011;8055;51.930;8.840;2022-12-29T07:28:47;1.73;;;0.73;;
15913;SDS011;8055;51.930;8.840;2022-12-29T07:31:17;1.88;;;0.93;;
15913;SDS011;8055;51.930;8.840;2022-12-29T07:33:44;3.20;;;1.55;;
15913;SDS011;8055;51.930;8.840;2022-12-29T07:36:10;2.50;;;0.93;;
15913;SDS011;8055;51.930;8.840;2022-12-29T07:38:37;1.40;;;0.60;;
15913;SDS011;8055;51.930;8.840;2022-12-29T07:41:02;0.70;;;0.70;;
15913;SDS011;8055;51.930;8.840;2022-12-29T07:43:28;0.93;;;0.70;;
15913;SDS011;8055;51.930;8.840;2022-12-29T07:45:53;1.15;;;0.90;;
15913;SDS011;8055;51.930;8.840;2022-12-29T07:48:18;3.58;;;0.80;;
15913;SDS011;8055;51.930;8.840;2022-12-29T07:50:44;2.75;;;1.00;;
15913;SDS011;8055;51.930;8.840;2022-12-29T07:53:09;1.23;;;0.70;;
15913;SDS011;8055;51.930;8.840;2022-12-29T07:55:35;1.83;;;0.90;;
15913;SDS011;8055;51.930;8.840;2022-12-29T07:58:00;1.58;;;0.70;;
15913;SDS011;8055;51.930;8.840;2022-12-29T08:00:25;2.53;;;0.70;;
15913;SDS011;8055;51.930;8.840;2022-12-29T08:02:51;1.20;;;0.65;;
15913;SDS011;8055;51.930;8.840;2022-12-29T08:05:16;0.77;;;0.60;;
15913;SDS011;8055;51.930;8.840;2022-12-29T08:07:42;2.35;;;0.70;;
15913;SDS011;8055;51.930;8.840;2022-12-29T08:10:09;3.95;;;0.77;;
15913;SDS011;8055;51.930;8.840;2022-12-29T08:12:35;1.90;;;0.82;;
15913;SDS011;8055;51.930;8.840;2022-12-29T08:15:00;1.50;;;0.80;;
15913;SDS011;8055;51.930;8.840;2022-12-29T08:17:26;1.92;;;0.50;;
15913;SDS011;8055;51.930;8.840;2022-12-29T08:19:51;2.45;;;0.80;;
15913;SDS011;8055;51.930;8.840;2022-12-29T08:22:16;1.52;;;0.63;;
15913;SDS011;8055;51.930;8.840;2022-12-29T08:24:42;1.63;;;0.80;;
15913;SDS011;8055;51.930;8.840;2022-12-29T08:27:07;2.65;;;0.70;;
15913;SDS011;8055;51.930;8.840;2022-12-29T08:29:32;1.60;;;0.80;;
15913;SDS011;8055;51.930;8.840;2022-12-29T08:31:58;1.33;;;0.70;;
15913;SDS011;8055;51.930;8.840;2022-12-29T08:34:23;1.60;;;0.70;;
15913;SDS011;8055;51.930;8.840;2022-12-29T08:36:48;1.45;;;0.75;;
15913;SDS011;8055;51.930;8.840;2022-12-29T08:39:14;6.47;;;5.43;;
15913;SDS011;8055;51.930;8.840;2022-12-29T08:41:39;3.58;;;1.15;;
15913;SDS011;8055;51.930;8.840;2022-12-29T08:44:04;3.13;;;1.30;;
15913;SDS011;8055;51.930;8.840;2022-12-29T08:46:30;1.70;;;1.17;;
15913;SDS011;8055;51.930;8.840;2022-12-29T08:48:55;1.27;;;0.80;;
15913;SDS011;8055;51.930;8.840;2022-12-29T08:51:21;1.92;;;0.85;;
15913;SDS011;8055;51.930;8.840;2022-12-29T08:53:46;2.65;;;0.88;;
15913;SDS011;8055;51.930;8.840;2022-12-29T08:56:11;1.90;;;0.80;;
15913;SDS011;8055;51.930;8.840;2022-12-29T08:58:37;1.45;;;0.85;;
15913;SDS011;8055;51.930;8.840;2022-12-29T09:01:02;3.45;;;0.70;;
15913;SDS011;8055;51.930;8.840;2022-12-29T09:03:28;1.35;;;0.73;;
15913;SDS011;8055;51.930;8.840;2022-12-29T09:05:54;0.70;;;0.70;;
15913;SDS011;8055;51.930;8.840;2022-12-29T09:08:20;3.60;;;0.80;;
15913;SDS011;8055;51.930;8.840;2022-12-29T09:10:47;1.63;;;0.90;;
15913;SDS011;8055;51.930;8.840;2022-12-29T09:13:12;5.00;;;1.10;;
15913;SDS011;8055;51.930;8.840;2022-12-29T09:15:39;4.32;;;1.35;;
15913;SDS011;8055;51.930;8.840;2022-12-29T09:18:05;3.58;;;1.30;;
15913;SDS011;8055;51.930;8.840;2022-12-29T09:20:32;2.10;;;1.00;;
15913;SDS011;8055;51.930;8.840;2022-12-29T09:22:58;2.65;;;1.20;;
15913;SDS011;8055;51.930;8.840;2022-12-29T09:25:23;3.58;;;1.00;;
15913;SDS011;8055;51.930;8.840;2022-12-29T09:27:49;3.80;;;1.30;;
15913;SDS011;8055;51.930;8.840;2022-12-29T09:30:17;2.53;;;0.73;;
15913;SDS011;8055;51.930;8.840;2022-12-29T09:32:42;3.65;;;1.30;;
15913;SDS011;8055;51.930;8.840;2022-12-29T09:35:08;3.63;;;1.33;;
15913;SDS011;8055;51.930;8.840;2022-12-29T09:37:33;3.53;;;0.82;;
15913;SDS011;8055;51.930;8.840;2022-12-29T09:39:59;5.35;;;1.20;;
15913;SDS011;8055;51.930;8.840;2022-12-29T09:45:23;2.60;;;1.15;;
15913;SDS011;8055;51.930;8.840;2022-12-29T09:47:57;4.78;;;1.30;;
15913;SDS011;8055;51.930;8.840;2022-12-29T09:50:28;3.55;;;1.15;;
15913;SDS011;8055;51.930;8.840;2022-12-29T09:53:05;5.07;;;1.20;;
15913;SDS011;8055;51.930;8.840;2022-12-29T09:55:45;2.38;;;0.98;;
15913;SDS011;8055;51.930;8.840;2022-12-29T09:58:26;4.32;;;1.38;;
15913;SDS011;8055;51.930;8.840;2022-12-29T10:01:04;3.20;;;1.00;;
15913;SDS011;8055;51.930;8.840;2022-12-29T10:03:50;2.88;;;1.10;;
15913;SDS011;8055;51.930;8.840;2022-12-29T10:21:45;6.82;;;1.40;;
15913;SDS011;8055;51.930;8.840;2022-12-29T10:24:21;3.78;;;1.70;;
15913;SDS011;8055;51.930;8.840;2022-12-29T10:26:47;5.68;;;1.65;;
15913;SDS011;8055;51.930;8.840;2022-12-29T10:29:18;2.95;;;0.82;;
15913;SDS011;8055;51.930;8.840;2022-12-29T10:34:36;3.30;;;0.90;;
15913;SDS011;8055;51.930;8.840;2022-12-29T10:37:14;3.22;;;1.17;;
15913;SDS011;8055;51.930;8.840;2022-12-29T10:39:51;6.10;;;1.40;;
15913;SDS011;8055;51.930;8.840;2022-12-29T10:42:25;4.95;;;1.20;;
15913;SDS011;8055;51.930;8.840;2022-12-29T10:44:51;5.78;;;1.60;;
15913;SDS011;8055;51.930;8.840;2022-12-29T10:47:20;3.55;;;1.30;;
15913;SDS011;8055;51.930;8.840;2022-12-29T10:49:49;5.50;;;1.55;;
15913;SDS011;8055;51.930;8.840;2022-12-29T10:52:16;7.30;;;1.67;;
15913;SDS011;8055;51.930;8.840;2022-12-29T10:54:49;5.07;;;1.40;;
15913;SDS011;8055;51.930;8.840;2022-12-29T10:57:26;5.20;;;1.45;;
15913;SDS011;8055;51.930;8.840;2022-12-29T10:59:56;4.32;;;1.00;;
15913;SDS011;8055;51.930;8.840;2022-12-29T11:02:25;4.18;;;1.10;;
15913;SDS011;8055;51.930;8.840;2022-12-29T11:07:32;7.43;;;1.70;;
15913;SDS011;8055;51.930;8.840;2022-12-29T11:12:41;4.03;;;1.20;;
15913;SDS011;8055;51.930;8.840;2022-12-29T11:15:20;4.32;;;1.40;;
15913;SDS011;8055;51.930;8.840;2022-12-29T11:17:50;5.75;;;1.67;;
15913;SDS011;8055;51.930;8.840;2022-12-29T11:20:29;7.28;;;1.52;;
15913;SDS011;8055;51.930;8.840;2022-12-29T11:23:00;5.22;;;1.73;;
15913;SDS011;8055;51.930;8.840;2022-12-29T11:25:28;19.75;;;2.10;;
15913;SDS011;8055;51.930;8.840;2022-12-29T11:28:12;5.63;;;1.50;;
15913;SDS011;8055;51.930;8.840;2022-12-29T11:30:39;4.53;;;1.10;;
15913;SDS011;8055;51.930;8.840;2022-12-29T11:33:05;4.72;;;1.30;;
15913;SDS011;8055;51.930;8.840;2022-12-29T11:37:59;5.40;;;1.45;;
15913;SDS011;8055;51.930;8.840;2022-12-29T11:40:25;6.63;;;1.60;;
15913;SDS011;8055;51.930;8.840;2022-12-29T11:42:52;6.13;;;1.35;;
15913;SDS011;8055;51.930;8.840;2022-12-29T11:45:23;3.28;;;1.20;;
15913;SDS011;8055;51.930;8.840;2022-12-29T11:47:54;5.10;;;1.40;;
15913;SDS011;8055;51.930;8.840;2022-12-29T11:50:41;4.55;;;1.35;;
15913;SDS011;8055;51.930;8.840;2022-12-29T11:53:17;5.43;;;1.98;;
15913;SDS011;8055;51.930;8.840;2022-12-29T11:55:51;7.22;;;1.67;;
15913;SDS011;8055;51.930;8.840;2022-12-29T11:58:19;4.07;;;1.40;;
15913;SDS011;8055;51.930;8.840;2022-12-29T12:00:45;3.78;;;1.23;;
15913;SDS011;8055;51.930;8.840;2022-12-29T12:03:21;4.00;;;1.30;;
15913;SDS011;8055;51.930;8.840;2022-12-29T12:05:56;4.53;;;1.30;;
15913;SDS011;8055;51.930;8.840;2022-12-29T12:16:18;6.80;;;1.80;;
15913;SDS011;8055;51.930;8.840;2022-12-29T12:18:57;7.57;;;1.88;;
15913;SDS011;8055;51.930;8.840;2022-12-29T12:21:36;7.93;;;1.70;;
15913;SDS011;8055;51.930;8.840;2022-12-29T12:26:56;5.85;;;1.52;;
15913;SDS011;8055;51.930;8.840;2022-12-29T12:29:52;10.55;;;1.92;;
15913;SDS011;8055;51.930;8.840;2022-12-29T12:32:41;6.90;;;1.40;;
15913;SDS011;8055;51.930;8.840;2022-12-29T12:35:13;4.88;;;1.67;;
15913;SDS011;8055;51.930;8.840;2022-12-29T12:37:52;3.85;;;1.50;;
15913;SDS011;8055;51.930;8.840;2022-12-29T12:43:29;6.43;;;1.63;;
15913;SDS011;8055;51.930;8.840;2022-12-29T12:52:09;5.35;;;1.52;;
15913;SDS011;8055;51.930;8.840;2022-12-29T12:57:53;4.88;;;1.90;;
15913;SDS011;8055;51.930;8.840;2022-12-29T13:00:23;9.88;;;1.80;;
15913;SDS011;8055;51.930;8.840;2022-12-29T13:03:03;6.28;;;1.85;;
15913;SDS011;8055;51.930;8.840;2022-12-29T13:08:24;8.45;;;1.52;;
15913;SDS011;8055;51.930;8.840;2022-12-29T13:11:06;6.88;;;1.65;;
15913;SDS011;8055;51.930;8.840;2022-12-29T13:13:49;6.72;;;1.38;;
15913;SDS011;8055;51.930;8.840;2022-12-29T13:16:38;6.32;;;1.42;;
15913;SDS011;8055;51.930;8.840;2022-12-29T13:19:17;7.15;;;1.58;;
15913;SDS011;8055;51.930;8.840;2022-12-29T13:22:08;5.43;;;1.50;;
15913;SDS011;8055;51.930;8.840;2022-12-29T13:30:03;5.70;;;1.40;;
15913;SDS011;8055;51.930;8.840;2022-12-29T13:35:34;5.95;;;1.40;;
15913;SDS011;8055;51.930;8.840;2022-12-29T13:38:04;4.95;;;1.58;;
15913;SDS011;8055;51.930;8.840;2022-12-29T13:40:37;8.60;;;1.70;;
15913;SDS011;8055;51.930;8.840;2022-12-29T13:43:07;6.80;;;1.38;;
15913;SDS011;8055;51.930;8.840;2022-12-29T13:45:33;7.35;;;2.58;;
15913;SDS011;8055;51.930;8.840;2022-12-29T13:48:05;6.70;;;2.10;;
15913;SDS011;8055;51.930;8.840;2022-12-29T13:50:38;5.55;;;1.25;;
15913;SDS011;8055;51.930;8.840;2022-12-29T13:58:36;8.18;;;1.40;;
15913;SDS011;8055;51.930;8.840;2022-12-29T14:04:11;7.25;;;1.40;;
15913;SDS011;8055;51.930;8.840;2022-12-29T14:06:38;6.10;;;1.52;;
15913;SDS011;8055;51.930;8.840;2022-12-29T14:09:06;5.28;;;1.60;;
15913;SDS011;8055;51.930;8.840;2022-12-29T14:11:52;9.32;;;2.03;;
15913;SDS011;8055;51.930;8.840;2022-12-29T14:16:52;7.20;;;1.25;;
15913;SDS011;8055;51.930;8.840;2022-12-29T14:19:40;5.85;;;1.63;;
15913;SDS011;8055;51.930;8.840;2022-12-29T14:22:06;6.50;;;1.90;;
15913;SDS011;8055;51.930;8.840;2022-12-29T14:26:57;4.43;;;1.42;;
15913;SDS011;8055;51.930;8.840;2022-12-29T14:31:48;17.30;;;6.72;;
15913;SDS011;8055;51.930;8.840;2022-12-29T14:34:15;8.93;;;2.38;;
15913;SDS011;8055;51.930;8.840;2022-12-29T14:37:03;6.25;;;1.40;;
15913;SDS011;8055;51.930;8.840;2022-12-29T14:39:40;4.07;;;1.38;;
15913;SDS011;8055;51.930;8.840;2022-12-29T14:44:57;6.32;;;1.92;;
15913;SDS011;8055;51.930;8.840;2022-12-29T14:50:03;6.90;;;1.67;;
15913;SDS011;8055;51.930;8.840;2022-12-29T14:54:58;6.70;;;1.67;;
15913;SDS011;8055;51.930;8.840;2022-12-29T14:57:47;5.30;;;1.67;;
15913;SDS011;8055;51.930;8.840;2022-12-29T15:00:22;8.18;;;1.60;;
15913;SDS011;8055;51.930;8.840;2022-12-29T15:03:38;4.32;;;1.40;;
15913;SDS011;8055;51.930;8.840;2022-12-29T15:05:46;10.68;;;1.60;;
15913;SDS011;8055;51.930;8.840;2022-12-29T15:08:18;6.40;;;1.20;;
15913;SDS011;8055;51.930;8.840;2022-12-29T15:10:53;9.23;;;1.80;;
15913;SDS011;8055;51.930;8.840;2022-12-29T15:13:32;8.38;;;1.13;;
15913;SDS011;8055;51.930;8.840;2022-12-29T15:16:02;6.43;;;1.92;;
15913;SDS011;8055;51.930;8.840;2022-12-29T15:18:29;4.07;;;1.58;;
15913;SDS011;8055;51.930;8.840;2022-12-29T15:21:03;7.20;;;1.60;;
15913;SDS011;8055;51.930;8.840;2022-12-29T15:23:31;8.35;;;1.73;;
15913;SDS011;8055;51.930;8.840;2022-12-29T15:26:02;8.48;;;1.70;;
15913;SDS011;8055;51.930;8.840;2022-12-29T15:28:36;8.60;;;1.80;;
15913;SDS011;8055;51.930;8.840;2022-12-29T15:31:10;6.45;;;1.42;;
15913;SDS011;8055;51.930;8.840;2022-12-29T15:33:39;6.27;;;1.70;;
15913;SDS011;8055;51.930;8.840;2022-12-29T15:36:10;9.43;;;1.88;;
15913;SDS011;8055;51.930;8.840;2022-12-29T15:38:37;8.05;;;1.48;;
15913;SDS011;8055;51.930;8.840;2022-12-29T15:41:11;5.88;;;2.30;;
15913;SDS011;8055;51.930;8.840;2022-12-29T15:44:23;8.55;;;1.88;;
15913;SDS011;8055;51.930;8.840;2022-12-29T15:47:23;7.68;;;1.73;;
15913;SDS011;8055;51.930;8.840;2022-12-29T15:49:52;7.28;;;1.95;;
15913;SDS011;8055;51.930;8.840;2022-12-29T15:52:21;7.95;;;1.42;;
15913;SDS011;8055;51.930;8.840;2022-12-29T15:54:49;9.55;;;2.30;;
15913;SDS011;8055;51.930;8.840;2022-12-29T15:57:23;6.00;;;1.70;;
15913;SDS011;8055;51.930;8.840;2022-12-29T15:59:50;5.85;;;1.77;;
15913;SDS011;8055;51.930;8.840;2022-12-29T16:02:16;8.05;;;1.65;;
15913;SDS011;8055;51.930;8.840;2022-12-29T16:04:41;11.63;;;1.90;;
15913;SDS011;8055;51.930;8.840;2022-12-29T16:07:27;8.82;;;1.52;;
15913;SDS011;8055;51.930;8.840;2022-12-29T16:09:55;4.75;;;1.80;;
15913;SDS011;8055;51.930;8.840;2022-12-29T16:12:24;6.32;;;1.52;;
15913;SDS011;8055;51.930;8.840;2022-12-29T16:17:24;7.15;;;1.70;;
15913;SDS011;8055;51.930;8.840;2022-12-29T16:19:54;6.75;;;1.60;;
15913;SDS011;8055;51.930;8.840;2022-12-29T16:22:29;5.38;;;1.80;;
15913;SDS011;8055;51.930;8.840;2022-12-29T16:25:00;7.38;;;1.58;;
15913;SDS011;8055;51.930;8.840;2022-12-29T16:30:07;6.25;;;1.83;;
15913;SDS011;8055;51.930;8.840;2022-12-29T16:32:45;9.95;;;1.90;;
15913;SDS011;8055;51.930;8.840;2022-12-29T16:40:54;3.72;;;1.52;;
15913;SDS011;8055;51.930;8.840;2022-12-29T16:43:31;6.88;;;1.73;;
15913;SDS011;8055;51.930;8.840;2022-12-29T16:50:49;5.70;;;1.52;;
15913;SDS011;8055;51.930;8.840;2022-12-29T16:53:26;5.75;;;1.60;;
15913;SDS011;8055;51.930;8.840;2022-12-29T16:55:54;2.83;;;1.40;;
15913;SDS011;8055;51.930;8.840;2022-12-29T16:58:23;6.00;;;1.70;;
15913;SDS011;8055;51.930;8.840;2022-12-29T17:00:53;6.40;;;1.85;;
15913;SDS011;8055;51.930;8.840;2022-12-29T17:03:21;4.50;;;2.03;;
15913;SDS011;8055;51.930;8.840;2022-12-29T17:05:47;6.10;;;1.70;;
15913;SDS011;8055;51.930;8.840;2022-12-29T17:08:19;6.65;;;1.35;;
15913;SDS011;8055;51.930;8.840;2022-12-29T17:10:51;8.40;;;1.75;;
15913;SDS011;8055;51.930;8.840;2022-12-29T17:13:38;7.47;;;1.83;;
15913;SDS011;8055;51.930;8.840;2022-12-29T17:16:04;5.15;;;1.65;;
15913;SDS011;8055;51.930;8.840;2022-12-29T17:18:34;3.85;;;1.42;;
15913;SDS011;8055;51.930;8.840;2022-12-29T17:21:00;5.72;;;1.50;;
15913;SDS011;8055;51.930;8.840;2022-12-29T17:23:25;3.97;;;1.55;;
15913;SDS011;8055;51.930;8.840;2022-12-29T17:25:51;4.25;;;1.40;;
15913;SDS011;8055;51.930;8.840;2022-12-29T17:28:19;6.00;;;2.00;;
15913;SDS011;8055;51.930;8.840;2022-12-29T17:30:46;4.70;;;1.33;;
15913;SDS011;8055;51.930;8.840;2022-12-29T17:33:13;6.43;;;1.40;;
15913;SDS011;8055;51.930;8.840;2022-12-29T17:35:40;4.10;;;1.33;;
15913;SDS011;8055;51.930;8.840;2022-12-29T17:41:04;5.78;;;1.58;;
15913;SDS011;8055;51.930;8.840;2022-12-29T17:43:40;8.02;;;1.63;;
15913;SDS011;8055;51.930;8.840;2022-12-29T17:46:06;3.92;;;1.48;;